Time;durP1;ratioP1;P1;durP2;ratioP2;P2;SDS_P1;SDS_P2;PMS_P1;PMS_P2;Temp;Humidity;BMP_temperature;BMP_pressure;BME280_temperature;BME280_humidity;BME280_pressure;Samples;Min_cycle;Max_cycle;Signal;HPM_P1;HPM_P2
2023/06/14 00:01:47;;;;;;;18.70;6.88;;;17.10;99.90;;;;;;6280747;22;20100;-85
2023/06/14 00:04:16;;;;;;;12.75;6.57;;;17.10;99.90;;;;;;6280875;22;20038;-85
2023/06/14 00:06:45;;;;;;;14.85;5.88;;;17.10;99.90;;;;;;6280469;22;20095;-85
2023/06/14 00:09:12;;;;;;;16.05;6.40;;;17.20;99.90;;;;;;6280694;22;20004;-85
2023/06/14 00:11:40;;;;;;;11.82;5.82;;;17.20;99.90;;;;;;6282013;22;20008;-85
2023/06/14 00:14:06;;;;;;;18.77;5.93;;;17.10;99.90;;;;;;6282621;22;20090;-83
2023/06/14 00:16:33;;;;;;;13.50;6.60;;;17.10;99.90;;;;;;6282879;22;19999;-86
2023/06/14 00:18:59;;;;;;;12.15;5.88;;;17.10;99.90;;;;;;6283002;22;20416;-85
2023/06/14 00:21:28;;;;;;;12.18;5.97;;;17.10;99.90;;;;;;6282182;22;20458;-86
2023/06/14 00:23:54;;;;;;;13.02;6.70;;;17.10;99.90;;;;;;6282917;22;20053;-86
2023/06/14 00:26:19;;;;;;;11.88;6.05;;;17.10;99.90;;;;;;6282747;22;20011;-86
2023/06/14 00:28:45;;;;;;;13.27;6.53;;;17.10;99.90;;;;;;6282386;22;19999;-84
2023/06/14 00:31:11;;;;;;;13.82;6.05;;;17.10;99.90;;;;;;6282750;22;20011;-83
2023/06/14 00:33:37;;;;;;;11.50;6.30;;;17.00;99.90;;;;;;6282936;22;20002;-83
2023/06/14 00:36:02;;;;;;;11.43;5.65;;;17.00;99.90;;;;;;6282352;22;20442;-84
2023/06/14 00:38:28;;;;;;;13.60;5.85;;;17.00;99.90;;;;;;6282368;22;19995;-83
2023/06/14 00:40:54;;;;;;;11.15;5.95;;;16.90;99.90;;;;;;6282523;22;20030;-84
2023/06/14 00:43:20;;;;;;;10.85;5.93;;;17.00;99.90;;;;;;6282221;22;20004;-84
2023/06/14 00:45:46;;;;;;;12.35;5.68;;;16.90;99.90;;;;;;6282606;22;19999;-84
2023/06/14 00:48:13;;;;;;;13.00;5.95;;;16.90;99.90;;;;;;6282525;22;20009;-84
2023/06/14 00:50:41;;;;;;;15.57;6.47;;;16.80;99.90;;;;;;6282600;22;20023;-84
2023/06/14 00:53:07;;;;;;;10.70;5.82;;;16.80;99.90;;;;;;6282792;22;20475;-85
2023/06/14 00:55:33;;;;;;;18.88;6.60;;;16.80;99.90;;;;;;6281938;22;20018;-84
2023/06/14 00:58:00;;;;;;;14.82;6.35;;;16.80;99.90;;;;;;6282387;22;20027;-84
2023/06/14 01:00:25;;;;;;;15.77;6.88;;;16.80;99.90;;;;;;6282306;22;20062;-84
2023/06/14 01:02:51;;;;;;;13.20;6.25;;;16.80;99.90;;;;;;6282115;22;20419;-85
2023/06/14 01:05:18;;;;;;;14.95;6.60;;;16.80;99.90;;;;;;6309265;22;20332;-87
2023/06/14 01:07:50;;;;;;;11.43;5.97;;;16.70;99.90;;;;;;6282048;22;20004;-84
2023/06/14 01:10:32;;;;;;;18.67;7.32;;;16.70;99.90;;;;;;6308314;22;20090;-83
2023/06/14 01:13:37;;;;;;;12.30;6.45;;;16.70;99.90;;;;;;6282450;22;19996;-83
2023/06/14 01:16:04;;;;;;;13.52;6.88;;;16.70;99.90;;;;;;6155254;23;20006;-83
2023/06/14 01:18:32;;;;;;;14.00;6.60;;;16.70;99.90;;;;;;6130040;23;20010;-83
2023/06/14 01:20:57;;;;;;;15.23;7.55;;;16.60;99.90;;;;;;6130156;23;20006;-83
2023/06/14 01:23:24;;;;;;;16.63;7.10;;;16.50;99.90;;;;;;6129771;23;20453;-83
2023/06/14 01:25:53;;;;;;;22.00;6.85;;;16.50;99.90;;;;;;6130226;23;20005;-84
2023/06/14 01:28:21;;;;;;;12.90;6.93;;;16.50;99.90;;;;;;6130334;23;19997;-83
2023/06/14 01:30:53;;;;;;;15.73;6.68;;;16.40;99.90;;;;;;6129787;23;20060;-83
2023/06/14 01:33:20;;;;;;;;;;;16.40;99.90;;;;;;6130829;23;20001;-83
2023/06/14 01:35:48;;;;;;;13.10;6.70;;;16.40;99.90;;;;;;6154876;23;20330;-83
2023/06/14 01:38:17;;;;;;;16.02;7.60;;;16.40;99.90;;;;;;6129696;23;20418;-83
2023/06/14 01:40:48;;;;;;;13.57;7.30;;;16.40;99.90;;;;;;6129924;23;20001;-83
2023/06/14 01:43:15;;;;;;;13.07;7.22;;;16.40;99.90;;;;;;6130148;23;20462;-83
2023/06/14 01:45:43;;;;;;;15.57;7.03;;;16.40;99.90;;;;;;6129643;23;20002;-83
2023/06/14 01:48:09;;;;;;;14.35;7.65;;;16.30;99.90;;;;;;6154920;23;20088;-83
2023/06/14 01:50:35;;;;;;;16.13;7.78;;;16.40;99.90;;;;;;6273519;22;20003;-83
2023/06/14 01:53:01;;;;;;;16.40;8.27;;;16.40;99.90;;;;;;6281703;22;20011;-84
2023/06/14 01:55:27;;;;;;;17.02;8.05;;;16.40;99.90;;;;;;6281797;22;20370;-83
2023/06/14 01:57:53;;;;;;;16.10;8.13;;;16.30;99.90;;;;;;6281854;22;20007;-84
2023/06/14 02:00:21;;;;;;;16.48;7.85;;;16.30;99.90;;;;;;6307614;22;20003;-83
2023/06/14 02:02:47;;;;;;;15.05;7.45;;;16.30;99.90;;;;;;6281663;22;20042;-84
2023/06/14 02:05:13;;;;;;;14.45;7.60;;;16.30;99.90;;;;;;6281079;22;19995;-83
2023/06/14 02:07:38;;;;;;;21.38;7.30;;;16.30;99.90;;;;;;6281429;22;20003;-83
2023/06/14 02:10:05;;;;;;;13.27;6.78;;;16.30;99.90;;;;;;6281762;22;20030;-83
2023/06/14 02:12:31;;;;;;;17.40;7.50;;;16.30;99.90;;;;;;6281250;22;20498;-83
2023/06/14 02:14:57;;;;;;;13.52;6.82;;;16.30;99.90;;;;;;6281719;22;19999;-83
2023/06/14 02:17:24;;;;;;;14.40;6.78;;;16.30;99.90;;;;;;6282172;22;20082;-83
2023/06/14 02:19:50;;;;;;;12.80;6.55;;;16.30;99.90;;;;;;6281189;22;20056;-84
2023/06/14 02:22:16;;;;;;;17.02;6.30;;;16.20;99.90;;;;;;6308877;22;20003;-85
2023/06/14 02:24:43;;;;;;;10.13;5.97;;;16.20;99.90;;;;;;6281589;22;19999;-84
2023/06/14 02:27:11;;;;;;;13.48;7.30;;;16.10;99.90;;;;;;6281253;22;20010;-84
2023/06/14 02:29:37;;;;;;;14.35;6.65;;;16.20;99.90;;;;;;6281563;22;20475;-84
2023/06/14 02:32:04;;;;;;;13.63;7.03;;;16.20;99.90;;;;;;6281603;22;20030;-84
2023/06/14 02:34:30;;;;;;;11.00;6.57;;;16.20;99.90;;;;;;6280792;22;20323;-84
2023/06/14 02:36:57;;;;;;;13.48;7.18;;;16.20;99.90;;;;;;6281668;22;20074;-84
2023/06/14 02:39:23;;;;;;;12.18;6.85;;;16.20;99.90;;;;;;6281780;22;19999;-84
2023/06/14 02:41:52;;;;;;;10.93;6.47;;;16.20;99.90;;;;;;6280652;22;20369;-84
2023/06/14 02:44:19;;;;;;;17.20;6.72;;;16.20;99.90;;;;;;6281271;22;20436;-84
2023/06/14 02:46:45;;;;;;;15.82;8.15;;;16.30;99.90;;;;;;6280810;22;20082;-84
2023/06/14 02:49:11;;;;;;;13.57;8.48;;;16.30;99.90;;;;;;6308609;22;20002;-84
2023/06/14 02:51:37;;;;;;;24.38;9.90;;;16.20;99.90;;;;;;6281064;22;20003;-84
2023/06/14 02:54:03;;;;;;;21.52;9.70;;;16.30;99.90;;;;;;6280955;22;20414;-83
2023/06/14 02:56:29;;;;;;;29.80;12.60;;;16.30;99.90;;;;;;6280423;22;20082;-83
2023/06/14 02:58:55;;;;;;;28.42;12.30;;;16.30;99.90;;;;;;6306673;22;20428;-83
2023/06/14 03:01:21;;;;;;;20.20;11.38;;;16.30;99.90;;;;;;6306218;22;20057;-83
2023/06/14 03:03:47;;;;;;;20.30;11.38;;;16.30;99.90;;;;;;6306619;22;20007;-83
2023/06/14 03:06:13;;;;;;;26.02;13.43;;;16.30;99.90;;;;;;6306724;22;20007;-84
2023/06/14 03:08:41;;;;;;;30.55;13.68;;;16.30;99.90;;;;;;6306084;22;20003;-83
2023/06/14 03:11:08;;;;;;;26.60;13.48;;;16.30;99.90;;;;;;6306661;22;20003;-83
2023/06/14 03:13:35;;;;;;;23.50;13.20;;;16.40;99.90;;;;;;6308345;22;20029;-83
2023/06/14 03:16:02;;;;;;;26.23;12.25;;;16.40;99.90;;;;;;6306363;22;20487;-83
2023/06/14 03:18:30;;;;;;;22.77;12.10;;;16.40;99.90;;;;;;6306776;22;20050;-83
2023/06/14 03:20:57;;;;;;;24.77;12.50;;;16.40;99.90;;;;;;6307685;22;20003;-83
2023/06/14 03:23:25;;;;;;;26.48;13.43;;;16.40;99.90;;;;;;6305639;22;20007;-83
2023/06/14 03:25:51;;;;;;;30.70;14.30;;;16.40;99.90;;;;;;6306684;22;20003;-83
2023/06/14 03:28:17;;;;;;;32.78;15.57;;;16.30;99.90;;;;;;6306046;22;20049;-83
2023/06/14 03:30:43;;;;;;;30.23;15.27;;;16.30;99.90;;;;;;6305758;22;20010;-83
2023/06/14 03:33:09;;;;;;;29.52;14.75;;;16.30;99.90;;;;;;6306421;22;20082;-84
2023/06/14 03:35:35;;;;;;;28.42;13.15;;;16.40;99.90;;;;;;6306494;22;20001;-82
2023/06/14 03:38:02;;;;;;;24.67;12.40;;;16.40;99.90;;;;;;6306066;22;19999;-82
2023/06/14 03:40:28;;;;;;;23.83;11.90;;;16.40;99.90;;;;;;6306377;22;20094;-83
2023/06/14 03:42:55;;;;;;;30.00;12.82;;;16.40;99.90;;;;;;6306332;22;20030;-83
2023/06/14 03:45:21;;;;;;;28.70;11.93;;;16.40;99.90;;;;;;6307479;22;20022;-82
2023/06/14 03:47:47;;;;;;;25.98;11.82;;;16.40;99.90;;;;;;6306246;22;20007;-83
2023/06/14 03:50:13;;;;;;;27.42;11.88;;;16.40;99.90;;;;;;6306046;22;20037;-83
2023/06/14 03:52:42;;;;;;;26.20;12.77;;;16.50;99.90;;;;;;6306392;22;20324;-83
2023/06/14 03:55:08;;;;;;;23.90;12.25;;;16.50;99.90;;;;;;6305957;22;20010;-83
2023/06/14 03:57:34;;;;;;;25.08;12.68;;;16.60;99.90;;;;;;6306071;22;20069;-83
2023/06/14 04:00:00;;;;;;;26.92;12.73;;;16.60;99.90;;;;;;6308114;22;19999;-83
2023/06/14 04:02:28;;;;;;;22.90;11.65;;;16.70;99.90;;;;;;6306197;22;19999;-83
2023/06/14 04:04:54;;;;;;;23.50;11.30;;;16.70;99.90;;;;;;6305714;22;20003;-84
2023/06/14 04:07:20;;;;;;;25.88;11.50;;;16.80;99.90;;;;;;6306259;22;20473;-84
2023/06/14 04:09:47;;;;;;;26.02;10.90;;;16.80;99.90;;;;;;6306408;22;20003;-84
2023/06/14 04:12:12;;;;;;;17.02;9.13;;;16.90;99.90;;;;;;6305994;22;20006;-84
2023/06/14 04:14:40;;;;;;;20.88;8.82;;;16.90;99.90;;;;;;6280791;22;19999;-84
2023/06/14 04:17:06;;;;;;;21.42;9.40;;;17.00;99.90;;;;;;6280721;22;20094;-84
2023/06/14 04:19:32;;;;;;;16.23;7.78;;;17.00;99.90;;;;;;6280023;22;19999;-84
2023/06/14 04:22:01;;;;;;;16.35;8.00;;;17.00;99.90;;;;;;6280553;22;20030;-84
2023/06/14 04:24:28;;;;;;;16.77;7.88;;;17.00;99.90;;;;;;6280677;22;20026;-84
2023/06/14 04:26:54;;;;;;;19.83;8.52;;;17.10;99.90;;;;;;6280335;22;20429;-83
2023/06/14 04:29:20;;;;;;;20.92;8.45;;;17.00;99.90;;;;;;6280737;22;20041;-83
2023/06/14 04:31:46;;;;;;;14.10;7.00;;;17.00;99.90;;;;;;6280847;22;20022;-84
2023/06/14 04:34:16;;;;;;;18.52;7.75;;;17.00;99.90;;;;;;6280467;22;20098;-83
2023/06/14 04:36:49;;;;;;;20.10;7.70;;;17.00;99.90;;;;;;6307730;22;20045;-83
2023/06/14 04:39:21;;;;;;;21.23;8.10;;;17.00;99.90;;;;;;6280182;22;20000;-83
2023/06/14 04:41:47;;;;;;;14.48;7.75;;;17.10;99.90;;;;;;6280366;22;20482;-83
2023/06/14 04:44:13;;;;;;;19.52;7.53;;;17.10;99.90;;;;;;6280286;22;20041;-83
2023/06/14 04:46:46;;;;;;;22.92;8.05;;;17.10;99.90;;;;;;6306848;22;19992;-84
2023/06/14 04:49:15;;;;;;;17.88;8.02;;;17.20;99.90;;;;;;6280488;22;20385;-83
2023/06/14 04:51:42;;;;;;;15.43;7.13;;;17.20;99.90;;;;;;6280438;22;19999;-82
2023/06/14 04:54:14;;;;;;;14.77;7.47;;;17.30;99.90;;;;;;6279812;22;20311;-83
2023/06/14 04:56:44;;;;;;;13.32;7.85;;;17.30;99.90;;;;;;6280495;22;20458;-83
2023/06/14 04:59:14;;;;;;;13.80;7.95;;;17.30;99.90;;;;;;6309027;22;20327;-83
2023/06/14 05:01:41;;;;;;;14.55;7.28;;;17.40;99.90;;;;;;6281001;22;20065;-83
2023/06/14 05:04:06;;;;;;;16.63;7.70;;;17.40;99.90;;;;;;6282155;22;19999;-83
2023/06/14 05:06:32;;;;;;;14.13;7.15;;;17.50;99.90;;;;;;6282337;22;20006;-82
2023/06/14 05:08:58;;;;;;;14.88;7.22;;;17.70;99.90;;;;;;6281760;22;20002;-84
2023/06/14 05:11:24;;;;;;;16.98;7.90;;;17.80;99.90;;;;;;6282213;22;20007;-85
2023/06/14 05:13:51;;;;;;;14.40;7.00;;;17.80;99.90;;;;;;6282053;22;20006;-84
2023/06/14 05:16:19;;;;;;;9.68;6.30;;;18.00;99.90;;;;;;6281459;22;19999;-84
2023/06/14 05:18:47;;;;;;;12.48;6.30;;;18.00;99.90;;;;;;6282100;22;20301;-85
2023/06/14 05:21:13;;;;;;;17.70;6.15;;;18.00;99.90;;;;;;6281669;22;20412;-84
2023/06/14 05:23:38;;;;;;;11.50;5.82;;;18.10;99.90;;;;;;6308714;22;20025;-85
2023/06/14 05:26:06;;;;;;;13.43;6.47;;;18.10;99.90;;;;;;6282061;22;20416;-84
2023/06/14 05:28:32;;;;;;;14.85;6.30;;;18.20;99.90;;;;;;6281904;22;20007;-85
2023/06/14 05:30:58;;;;;;;9.45;5.80;;;18.20;99.90;;;;;;6281920;22;20003;-85
2023/06/14 05:33:24;;;;;;;9.48;5.65;;;18.10;99.90;;;;;;6281967;22;20006;-85
2023/06/14 05:35:49;;;;;;;10.60;5.68;;;18.20;99.90;;;;;;6281282;22;20003;-84
2023/06/14 05:38:15;;;;;;;11.38;5.82;;;18.30;99.90;;;;;;6281932;22;19999;-83
2023/06/14 05:40:41;;;;;;;11.70;5.78;;;18.40;99.90;;;;;;6308574;22;20003;-82
2023/06/14 05:43:07;;;;;;;11.57;6.43;;;18.40;99.90;;;;;;6281379;22;20007;-83
2023/06/14 05:45:33;;;;;;;10.38;5.97;;;18.40;99.90;;;;;;6282048;22;19999;-83
2023/06/14 05:47:58;;;;;;;13.25;6.90;;;18.40;99.90;;;;;;6281830;22;20003;-84
2023/06/14 05:50:24;;;;;;;14.38;6.10;;;18.50;99.90;;;;;;6309204;22;20430;-83
2023/06/14 05:52:51;;;;;;;11.32;5.35;;;18.60;99.90;;;;;;6281840;22;20082;-83
2023/06/14 05:55:17;;;;;;;13.57;5.90;;;18.60;99.90;;;;;;6281199;22;20328;-84
2023/06/14 05:57:43;;;;;;;10.27;5.65;;;18.60;99.90;;;;;;6308393;22;20006;-83
2023/06/14 06:00:15;;;;;;;11.82;5.70;;;18.70;99.90;;;;;;6308879;22;19999;-83
2023/06/14 06:02:45;;;;;;;13.80;5.80;;;18.80;99.90;;;;;;6281807;22;20049;-82
2023/06/14 06:05:12;;;;;;;11.82;6.03;;;18.90;99.90;;;;;;6280753;22;20003;-83
2023/06/14 06:07:39;;;;;;;14.40;6.50;;;19.00;99.90;;;;;;6308963;22;20121;-82
2023/06/14 06:10:06;;;;;;;14.60;6.18;;;19.10;99.90;;;;;;6307760;22;20027;-82
2023/06/14 06:12:32;;;;;;;11.98;5.00;;;19.20;99.90;;;;;;6281198;22;20046;-84
2023/06/14 06:14:58;;;;;;;10.48;6.10;;;19.30;99.90;;;;;;6309050;22;20065;-83
2023/06/14 06:17:25;;;;;;;10.73;5.47;;;19.30;99.90;;;;;;6306988;22;20011;-84
2023/06/14 06:19:51;;;;;;;11.82;5.30;;;19.40;99.90;;;;;;6306888;22;20053;-84
2023/06/14 06:22:17;;;;;;;9.68;4.95;;;19.50;99.90;;;;;;6307316;22;20003;-83
2023/06/14 06:24:43;;;;;;;11.98;5.88;;;19.60;99.90;;;;;;6306814;22;20006;-84
2023/06/14 06:27:09;;;;;;;9.40;5.32;;;19.80;99.90;;;;;;6307248;22;20386;-83
2023/06/14 06:29:35;;;;;;;10.65;4.43;;;20.00;99.90;;;;;;6306849;22;20490;-83
2023/06/14 06:32:01;;;;;;;7.88;4.07;;;20.10;99.90;;;;;;6306721;22;20006;-85
2023/06/14 06:34:27;;;;;;;20.02;6.72;;;20.30;99.90;;;;;;6307022;22;19995;-84
2023/06/14 06:36:53;;;;;;;18.20;5.45;;;20.40;99.90;;;;;;6307941;22;20000;-85
2023/06/14 06:39:19;;;;;;;9.55;3.95;;;20.50;99.90;;;;;;6306234;22;20030;-85
2023/06/14 06:41:45;;;;;;;11.88;4.55;;;20.80;99.90;;;;;;6307338;22;20489;-85
2023/06/14 06:44:10;;;;;;;8.55;3.72;;;21.00;99.90;;;;;;6307359;22;19999;-84
2023/06/14 06:46:40;;;;;;;11.57;4.57;;;21.10;99.90;;;;;;6306685;22;20026;-85
2023/06/14 06:49:11;;;;;;;13.20;4.18;;;21.10;99.90;;;;;;6304794;22;19999;-84
2023/06/14 06:51:37;;;;;;;11.90;3.73;;;21.10;99.90;;;;;;6305504;22;20007;-85
2023/06/14 06:54:03;;;;;;;9.25;4.43;;;21.10;99.90;;;;;;6306304;22;20026;-85
2023/06/14 06:56:29;;;;;;;8.32;3.75;;;21.10;99.90;;;;;;6308315;22;20007;-86
2023/06/14 06:58:55;;;;;;;11.00;3.92;;;21.10;99.90;;;;;;6307271;22;20005;-85
2023/06/14 07:01:20;;;;;;;6.78;3.47;;;21.00;99.90;;;;;;6306699;22;20003;-85
2023/06/14 07:03:46;;;;;;;5.50;3.22;;;20.90;99.90;;;;;;6308854;22;19999;-85
2023/06/14 07:06:12;;;;;;;5.72;3.42;;;20.90;99.90;;;;;;6306651;22;20025;-85
2023/06/14 07:08:38;;;;;;;7.45;3.05;;;21.00;99.90;;;;;;6307566;22;20000;-86
2023/06/14 07:11:05;;;;;;;4.85;2.97;;;21.00;99.90;;;;;;6307135;22;20331;-85
2023/06/14 07:13:31;;;;;;;7.18;3.20;;;21.10;99.90;;;;;;6307971;22;19999;-85
2023/06/14 07:16:00;;;;;;;6.10;3.03;;;21.20;99.90;;;;;;6307057;22;20045;-84
2023/06/14 07:18:26;;;;;;;6.07;2.72;;;21.30;99.90;;;;;;6306805;22;20042;-84
2023/06/14 07:20:53;;;;;;;8.35;2.60;;;21.30;99.90;;;;;;6306236;22;20007;-85
2023/06/14 07:23:20;;;;;;;5.30;2.58;;;;;;;;;;6306958;22;20424;-84
2023/06/14 07:25:46;;;;;;;6.47;2.80;;;21.40;99.90;;;;;;6307072;22;20082;-85
2023/06/14 07:28:12;;;;;;;4.57;2.47;;;21.40;99.90;;;;;;6306558;22;20007;-85
2023/06/14 07:30:38;;;;;;;3.85;2.15;;;21.40;99.90;;;;;;6306928;22;20078;-85
2023/06/14 07:33:04;;;;;;;3.88;2.10;;;21.40;99.90;;;;;;6306963;22;20007;-85
2023/06/14 07:35:30;;;;;;;6.95;2.13;;;21.60;99.90;;;;;;6306515;22;20049;-85
2023/06/14 07:37:55;;;;;;;7.43;2.38;;;21.60;99.90;;;;;;6308512;22;19999;-85
2023/06/14 07:40:21;;;;;;;3.67;1.90;;;21.60;99.90;;;;;;6306305;22;20022;-84
2023/06/14 07:42:47;;;;;;;13.68;3.63;;;21.50;99.10;;;;;;6306413;22;20003;-85
2023/06/14 07:45:16;;;;;;;4.80;2.30;;;21.50;99.90;;;;;;6306436;22;19999;-84
2023/06/14 07:47:42;;;;;;;3.45;1.70;;;21.60;99.00;;;;;;6306853;22;19999;-83
2023/06/14 07:50:09;;;;;;;8.27;2.22;;;;;;;;;;6306148;22;19999;-84
2023/06/14 07:52:35;;;;;;;4.93;1.83;;;;;;;;;;6306707;22;19999;-82
2023/06/14 07:55:01;;;;;;;3.25;1.77;;;;;;;;;;6306593;22;19992;-85
2023/06/14 07:57:28;;;;;;;9.00;2.05;;;;;;;;;;6306184;22;20043;-85
2023/06/14 08:00:17;;;;;;;4.43;1.80;;;;;;;;;;6305711;22;20003;-93
2023/06/14 08:02:44;;;;;;;5.28;1.95;;;;;;;;;;6306518;22;20460;-85
2023/06/14 08:05:11;;;;;;;3.13;1.90;;;;;;;;;;6306743;22;20113;-85
2023/06/14 08:07:38;;;;;;;2.65;1.63;;;;;;;;;;6306875;22;20072;-85
2023/06/14 08:10:05;;;;;;;3.67;2.00;;;;;;;;;;6306336;22;20079;-83
2023/06/14 08:12:31;;;;;;;3.75;2.20;;;;;;;;;;6306420;22;19996;-84
2023/06/14 08:14:57;;;;;;;8.68;3.63;;;;;;;;;;6306685;22;20048;-86
2023/06/14 08:17:23;;;;;;;4.57;1.88;;;;;;;;;;6306338;22;19996;-84
2023/06/14 08:19:50;;;;;;;3.88;2.00;;;;;;;;;;6308026;22;20488;-85
2023/06/14 08:22:17;;;;;;;5.10;2.15;;;;;;;;;;6306687;22;20006;-84
2023/06/14 08:24:44;;;;;;;4.75;1.83;;;;;;;;;;6306319;22;20006;-84
2023/06/14 08:27:10;;;;;;;4.40;1.70;;;;;;;;;;6306647;22;20412;-84
2023/06/14 08:29:38;;;;;;;3.97;1.75;;;;;;;;;;6306203;22;20000;-84
2023/06/14 08:32:05;;;;;;;4.03;1.90;;;;;;;;;;6306702;22;20053;-84
2023/06/14 08:34:31;;;;;;;7.32;2.33;;;;;;;;;;6308738;22;20010;-85
2023/06/14 08:36:57;;;;;;;5.75;2.00;;;;;;;;;;6308620;22;20404;-84
2023/06/14 08:39:24;;;;;;;7.13;2.20;;;;;;;;;;6309668;22;19995;-84
2023/06/14 08:41:51;;;;;;;7.25;2.13;;;;;;;;;;6308514;22;20090;-84
2023/06/14 08:44:17;;;;;;;5.70;1.88;;;;;;;;;;6308509;22;20027;-84
2023/06/14 08:46:44;;;;;;;3.70;1.70;;;;;;;;;;6310194;22;20078;-84
2023/06/14 08:49:14;;;;;;;3.40;1.83;;;;;;;;;;6308627;22;19995;-83
2023/06/14 08:51:40;;;;;;;4.75;2.10;;;;;;;;;;6308015;22;20304;-84
2023/06/14 08:54:07;;;;;;;3.67;1.90;;;;;;;;;;6308472;22;20419;-84
2023/06/14 08:56:33;;;;;;;9.85;2.38;;;;;;;;;;6308124;22;20011;-85
2023/06/14 08:59:06;;;;;;;5.50;2.83;;;;;;;;;;6308039;22;20018;-84
2023/06/14 09:01:36;;;;;;;6.55;2.28;;;;;;;;;;6308439;22;20013;-84
2023/06/14 09:04:05;;;;;;;6.85;2.00;;;;;;;;;;6308375;22;20003;-84
2023/06/14 09:06:32;;;;;;;10.38;2.30;;;;;;;;;;6308106;22;20315;-84
2023/06/14 09:08:58;;;;;;;4.28;1.92;;;;;;;;;;6308383;22;20475;-85
2023/06/14 09:11:26;;;;;;;4.57;1.92;;;;;;;;;;6308246;22;20416;-84
2023/06/14 09:13:52;;;;;;;4.00;1.88;;;;;;;;;;6309475;22;19999;-84
2023/06/14 09:16:19;;;;;;;4.40;1.90;;;;;;;;;;6308582;22;20042;-87
2023/06/14 09:18:49;;;;;;;5.80;2.03;;;;;;;;;;6308693;22;20003;-89
2023/06/14 09:21:16;;;;;;;7.30;2.08;;;;;;;;;;6308138;22;20015;-85
2023/06/14 09:23:43;;;;;;;3.67;1.75;;;;;;;;;;6308216;22;20003;-85
2023/06/14 09:26:11;;;;;;;4.72;2.30;;;;;;;;;;6309394;22;20000;-86
2023/06/14 09:28:41;;;;;;;4.20;1.50;;;;;;;;;;6308141;22;20003;-85
2023/06/14 09:31:09;;;;;;;7.55;2.22;;;;;;;;;;6308275;22;20099;-86
2023/06/14 09:33:35;;;;;;;4.68;2.13;;;23.00;77.40;;;;;;6307890;22;20037;-85
2023/06/14 09:36:01;;;;;;;3.38;1.65;;;22.90;75.90;;;;;;6308227;22;20052;-86
2023/06/14 09:38:27;;;;;;;3.42;1.60;;;22.80;70.80;;;;;;6308232;22;20030;-85
2023/06/14 09:40:56;;;;;;;3.28;1.90;;;22.80;70.80;;;;;;6307465;22;20026;-85
2023/06/14 09:43:22;;;;;;;9.75;1.60;;;22.70;74.60;;;;;;6309139;22;20074;-85
2023/06/14 09:45:50;;;;;;;6.90;2.28;;;22.70;73.60;;;;;;6308043;22;20026;-85
2023/06/14 09:48:17;;;;;;;3.63;1.52;;;22.80;74.50;;;;;;6307540;22;20039;-86
2023/06/14 09:50:48;;;;;;;4.72;1.45;;;22.80;67.40;;;;;;6305279;22;20082;-86
2023/06/14 09:53:15;;;;;;;3.07;1.67;;;22.90;68.50;;;;;;6309283;22;20003;-84
2023/06/14 09:55:42;;;;;;;2.70;1.60;;;23.20;70.10;;;;;;6307218;22;20128;-86
2023/06/14 09:58:09;;;;;;;3.05;1.42;;;23.30;72.30;;;;;;6307932;22;20022;-85
2023/06/14 10:00:36;;;;;;;4.55;1.80;;;;;;;;;;6307915;22;20419;-84
2023/06/14 10:03:13;;;;;;;7.25;1.95;;;23.50;70.20;;;;;;6307660;22;20007;-85
2023/06/14 10:05:45;;;;;;;5.03;1.38;;;23.90;73.20;;;;;;6307942;22;20053;-85
2023/06/14 10:08:14;;;;;;;;;;;24.20;65.80;;;;;;6308352;22;20082;-84
2023/06/14 10:10:40;;;;;;;4.15;2.20;;;24.20;65.10;;;;;;6333803;22;20029;-85
2023/06/14 10:13:07;;;;;;;6.30;1.90;;;24.20;66.40;;;;;;6307903;22;20003;-85
2023/06/14 10:16:00;;;;;;;3.70;1.80;;;24.20;67.70;;;;;;6307266;22;20027;-84
2023/06/14 10:18:51;;;;;;;4.05;2.33;;;24.10;63.60;;;;;;6307859;22;20072;-85
2023/06/14 10:21:22;;;;;;;3.08;1.65;;;24.10;64.30;;;;;;6307630;22;20011;-85
2023/06/14 10:23:49;;;;;;;3.70;1.63;;;24.10;65.00;;;;;;6307303;22;20003;-85
2023/06/14 10:26:23;;;;;;;8.43;2.08;;;24.10;66.90;;;;;;6307558;22;20006;-85
2023/06/14 10:28:59;;;;;;;4.88;1.73;;;24.10;60.40;;;;;;6307702;22;20082;-86
2023/06/14 10:31:46;;;;;;;10.80;1.70;;;24.20;63.90;;;;;;6306874;22;20011;-84
2023/06/14 10:34:23;;;;;;;4.72;1.75;;;24.10;61.70;;;;;;6184228;23;20374;-86
2023/06/14 10:37:07;;;;;;;5.20;1.90;;;24.10;64.30;;;;;;6184026;23;20409;-85
2023/06/14 10:39:44;;;;;;;3.20;1.75;;;24.00;62.30;;;;;;6184102;23;19997;-85
2023/06/14 10:42:10;;;;;;;3.83;1.80;;;23.80;63.10;;;;;;6184218;23;20449;-85
2023/06/14 10:44:51;;;;;;;5.72;1.77;;;23.70;62.00;;;;;;6183643;23;20059;-85
2023/06/14 10:47:23;;;;;;;5.35;2.30;;;23.60;58.60;;;;;;6154571;23;20112;-85
2023/06/14 10:49:58;;;;;;;6.93;2.05;;;23.50;61.10;;;;;;6154185;23;20009;-85
2023/06/14 10:52:28;;;;;;;4.10;2.10;;;23.50;61.50;;;;;;6153840;23;20005;-85
2023/06/14 10:55:12;;;;;;;3.92;2.03;;;23.40;65.90;;;;;;6153856;23;20036;-85
2023/06/14 10:57:45;;;;;;;4.70;2.10;;;23.40;63.70;;;;;;6153657;23;20022;-85
2023/06/14 11:00:15;;;;;;;6.07;1.77;;;23.50;66.20;;;;;;6153469;23;20013;-84
2023/06/14 11:02:54;;;;;;;4.47;2.20;;;23.50;64.00;;;;;;6153564;23;20682;-84
2023/06/14 11:05:27;;;;;;;4.03;2.20;;;23.50;65.90;;;;;;6153752;23;20008;-84
2023/06/14 11:08:24;;;;;;;4.97;1.85;;;23.60;66.60;;;;;;6153766;23;20002;-85
2023/06/14 11:10:51;;;;;;;3.70;1.67;;;23.60;59.90;;;;;;6192220;22;20007;-84
2023/06/14 11:13:17;;;;;;;4.25;1.77;;;23.70;61.10;;;;;;6274421;22;20003;-85
2023/06/14 11:15:47;;;;;;;4.25;1.90;;;23.90;67.90;;;;;;6274826;22;20335;-85
2023/06/14 11:18:14;;;;;;;3.53;1.70;;;24.00;66.80;;;;;;6289689;22;19996;-84
2023/06/14 11:20:40;;;;;;;5.47;1.77;;;24.00;62.90;;;;;;6306081;22;20007;-85
2023/06/14 11:23:06;;;;;;;4.15;1.80;;;24.10;61.20;;;;;;6306311;22;20011;-85
2023/06/14 11:25:31;;;;;;;4.78;1.83;;;24.10;64.80;;;;;;6306518;22;20000;-85
2023/06/14 11:27:58;;;;;;;5.43;2.10;;;24.20;63.90;;;;;;6306974;22;20003;-86
2023/06/14 11:30:27;;;;;;;4.78;2.00;;;24.40;64.10;;;;;;6307084;22;20007;-85
2023/06/14 11:32:54;;;;;;;5.75;2.22;;;24.40;63.00;;;;;;6306560;22;20053;-86
2023/06/14 11:35:24;;;;;;;2.95;1.60;;;24.50;64.10;;;;;;6306712;22;19999;-86
2023/06/14 11:37:55;;;;;;;5.93;1.65;;;24.50;62.60;;;;;;6306773;22;20003;-86
2023/06/14 11:40:27;;;;;;;4.43;1.83;;;24.50;61.30;;;;;;6306596;22;20003;-86
2023/06/14 11:43:01;;;;;;;4.88;1.92;;;24.60;60.70;;;;;;6306224;22;20004;-85
2023/06/14 11:45:27;;;;;;;2.75;1.55;;;24.70;58.00;;;;;;6306966;22;19999;-86
2023/06/14 11:47:58;;;;;;;5.65;1.98;;;24.80;61.90;;;;;;6306584;22;20010;-86
2023/06/14 11:50:25;;;;;;;5.93;2.10;;;24.60;60.90;;;;;;6307361;22;20038;-87
2023/06/14 11:52:55;;;;;;;4.03;2.33;;;24.70;64.20;;;;;;6306964;22;20078;-86
2023/06/14 11:55:22;;;;;;;5.03;2.25;;;24.90;61.20;;;;;;6306472;22;20004;-87
2023/06/14 11:57:48;;;;;;;5.95;2.00;;;25.20;59.80;;;;;;6307204;22;20022;-86
2023/06/14 12:00:18;;;;;;;6.03;2.22;;;;;;;;;;6306264;22;20300;-87
2023/06/14 12:02:53;;;;;;;6.18;2.25;;;;;;;;;;6306810;22;20090;-86
2023/06/14 12:05:21;;;;;;;6.00;2.03;;;;;;;;;;6306936;22;20003;-87
2023/06/14 12:07:48;;;;;;;3.47;1.90;;;;;;;;;;6306378;22;20018;-85
2023/06/14 12:10:15;;;;;;;6.18;2.35;;;;;;;;;;6306454;22;20010;-84
2023/06/14 12:12:44;;;;;;;4.25;2.03;;;;;;;;;;6308028;22;20077;-87
2023/06/14 12:15:13;;;;;;;4.90;2.10;;;;;;;;;;6306642;22;19999;-86
2023/06/14 12:17:42;;;;;;;3.58;2.17;;;;;;;;;;6306699;22;20416;-85
2023/06/14 12:20:19;;;;;;;4.68;2.13;;;;;;;;;;6306370;22;20550;-86
2023/06/14 12:22:58;;;;;;;4.45;2.08;;;;;;;;;;6306320;22;20003;-85
2023/06/14 12:25:30;;;;;;;7.05;2.22;;;;;;;;;;6306641;22;19999;-86
2023/06/14 12:27:57;;;;;;;5.18;2.47;;;;;;;;;;6306888;22;20078;-87
2023/06/14 12:30:23;;;;;;;3.95;2.05;;;;;;;;;;6306321;22;20007;-85
2023/06/14 12:32:51;;;;;;;4.22;2.20;;;;;;;;;;6306728;22;20026;-87
2023/06/14 12:35:18;;;;;;;5.82;2.28;;;;;;;;;;6306184;22;19999;-86
2023/06/14 12:37:45;;;;;;;4.10;2.28;;;;;;;;;;6306998;22;20010;-85
2023/06/14 12:40:12;;;;;;;5.07;1.98;;;;;;;;;;6306432;22;20320;-86
2023/06/14 12:42:38;;;;;;;4.40;2.28;;;;;;;;;;6307706;22;20034;-86
2023/06/14 12:45:05;;;;;;;8.40;2.97;;;;;;;;;;6306694;22;19992;-86
2023/06/14 12:47:31;;;;;;;4.63;2.30;;;;;;;;;;6308226;22;20000;-84
2023/06/14 12:49:57;;;;;;;5.40;2.03;;;;;;;;;;6306163;22;20057;-85
2023/06/14 12:52:23;;;;;;;4.03;2.00;;;;;;;;;;6306142;22;19999;-86
2023/06/14 12:54:50;;;;;;;2.97;1.98;;;;;;;;;;6306446;22;20466;-86
2023/06/14 12:57:16;;;;;;;3.28;2.30;;;;;;;;;;6305977;22;20424;-86
2023/06/14 12:59:42;;;;;;;4.00;2.08;;;;;;;;;;6306460;22;19999;-86
2023/06/14 13:02:16;;;;;;;5.13;2.45;;;;;;;;;;6306492;22;20003;-86
2023/06/14 13:04:43;;;;;;;4.00;2.00;;;;;;;;;;6306082;22;20003;-85
2023/06/14 13:07:10;;;;;;;5.22;2.28;;;;;;;;;;6306534;22;20022;-86
2023/06/14 13:09:36;;;;;;;2.92;2.08;;;;;;;;;;6306530;22;20007;-86